Decoded Metar for PASM (SAINT MARYS in AK, USA) (IATA:KSM) | Meteo·Mobile Aviation Weather
aviador You're here:

PASM Decoded Metar

SAINT MARYS in AK, USA
Report Time2018-11-16 18:02:00
UTC Time2018-11-16 18:28:41
Flight Rules vfr VFR
Wind110° at 15 Gusting to 20 kt
W.Decomp.*RWY 06: 11.8 kt HW 9.2 kt RCW
RWY 17: 4.6 kt HW 14.3 kt LCW
W.Rank110° ranks 6
Current wind is above 110° avg. (10.0)
Visibility9999 m
Phenomena:Light Snow
Clouds:Overcast 110 Hf
Expected CloudBase > 400 ft AGL from Temp-Dew spread
Ceiling11,000 ft
Temp-7°C (ISA -21)
Dew Point-8°C (93% RH)
AAT-15.3°C
QNH1007 hPa
Density Alt-2,100 ft
Elevation302 ft
Report Wrong Elevation
Raw Report
PASM 161802Z AUTO 11015G20KT 9SM -SN OVC110 M07/M08 A2975 RMK AO2
SLP090 P0000 60000 T10671078 11056 21072 56014 FZRANO=

Extra information for PASM:More info

Metar Taf Metar & Taf Last 4 Metars F.Rules Stats Wind Profile Meteogram Temp Stats Airport Information Weather charts Add Link Nearby VenuesMetar ALERT Operation Metar Decoded Social comments

AIRNAV info for PASM